sensor_id;sensor_type;location;lat;lon;timestamp;pressure;altitude;pressure_sealevel;temperature;humidity
16194;BME280;8204;53.582;10.080;2023-01-29T00:01:31;101506.84;;;5.21;100.00
16194;BME280;8204;53.582;10.080;2023-01-29T00:04:00;101492.19;;;5.20;100.00
16194;BME280;8204;53.582;10.080;2023-01-29T00:06:31;101475.66;;;5.21;100.00
16194;BME280;8204;53.582;10.080;2023-01-29T00:09:00;101473.75;;;5.23;100.00
16194;BME280;8204;53.582;10.080;2023-01-29T00:11:30;101464.53;;;5.19;100.00
16194;BME280;8204;53.582;10.080;2023-01-29T00:13:59;101434.09;;;5.21;100.00
16194;BME280;8204;53.582;10.080;2023-01-29T00:16:29;101421.09;;;5.21;100.00
16194;BME280;8204;53.582;10.080;2023-01-29T00:18:59;101410.91;;;5.18;100.00
16194;BME280;8204;53.582;10.080;2023-01-29T00:21:31;101392.94;;;5.15;100.00
16194;BME280;8204;53.582;10.080;2023-01-29T00:24:00;101371.97;;;5.18;100.00
16194;BME280;8204;53.582;10.080;2023-01-29T00:26:29;101362.75;;;5.14;100.00
16194;BME280;8204;53.582;10.080;2023-01-29T00:28:58;101344.56;;;5.14;100.00
16194;BME280;8204;53.582;10.080;2023-01-29T00:31:28;101325.19;;;5.18;100.00
16194;BME280;8204;53.582;10.080;2023-01-29T00:33:57;101327.91;;;5.17;100.00
16194;BME280;8204;53.582;10.080;2023-01-29T00:36:26;101320.50;;;5.23;100.00
16194;BME280;8204;53.582;10.080;2023-01-29T00:38:59;101317.91;;;5.23;100.00
16194;BME280;8204;53.582;10.080;2023-01-29T00:41:36;101302.09;;;5.26;100.00
16194;BME280;8204;53.582;10.080;2023-01-29T00:44:17;101290.53;;;5.30;100.00
16194;BME280;8204;53.582;10.080;2023-01-29T00:47:00;101313.81;;;5.32;100.00
16194;BME280;8204;53.582;10.080;2023-01-29T00:49:29;101315.47;;;5.33;100.00
16194;BME280;8204;53.582;10.080;2023-01-29T00:51:58;101295.19;;;5.38;100.00
16194;BME280;8204;53.582;10.080;2023-01-29T00:54:42;101283.22;;;5.35;100.00
16194;BME280;8204;53.582;10.080;2023-01-29T00:57:11;101296.22;;;5.35;100.00
16194;BME280;8204;53.582;10.080;2023-01-29T00:59:39;101280.41;;;5.38;100.00
16194;BME280;8204;53.582;10.080;2023-01-29T01:02:08;101283.94;;;5.37;100.00
16194;BME280;8204;53.582;10.080;2023-01-29T01:04:49;101284.81;;;5.38;100.00
16194;BME280;8204;53.582;10.080;2023-01-29T01:07:19;101264.81;;;5.38;100.00
16194;BME280;8204;53.582;10.080;2023-01-29T01:09:50;101268.16;;;5.40;100.00
16194;BME280;8204;53.582;10.080;2023-01-29T01:12:32;101261.16;;;5.41;100.00
16194;BME280;8204;53.582;10.080;2023-01-29T01:15:00;101255.16;;;5.40;100.00
16194;BME280;8204;53.582;10.080;2023-01-29T01:17:32;101266.50;;;5.39;100.00
16194;BME280;8204;53.582;10.080;2023-01-29T01:20:01;101243.31;;;5.36;100.00
16194;BME280;8204;53.582;10.080;2023-01-29T01:22:30;101236.38;;;5.37;100.00
16194;BME280;8204;53.582;10.080;2023-01-29T01:25:01;101224.31;;;5.36;100.00
16194;BME280;8204;53.582;10.080;2023-01-29T01:27:30;101224.19;;;5.37;100.00
16194;BME280;8204;53.582;10.080;2023-01-29T01:29:59;101213.06;;;5.35;100.00
16194;BME280;8204;53.582;10.080;2023-01-29T01:32:28;101218.06;;;5.38;100.00
16194;BME280;8204;53.582;10.080;2023-01-29T01:34:57;101220.66;;;5.38;100.00
16194;BME280;8204;53.582;10.080;2023-01-29T01:37:26;101221.38;;;5.40;100.00
16194;BME280;8204;53.582;10.080;2023-01-29T01:39:55;101221.84;;;5.45;100.00
16194;BME280;8204;53.582;10.080;2023-01-29T01:42:29;101216.66;;;5.45;100.00
16194;BME280;8204;53.582;10.080;2023-01-29T01:44:59;101215.81;;;5.45;100.00
16194;BME280;8204;53.582;10.080;2023-01-29T01:47:34;101232.97;;;5.47;100.00
16194;BME280;8204;53.582;10.080;2023-01-29T01:50:09;101232.59;;;5.41;100.00
16194;BME280;8204;53.582;10.080;2023-01-29T01:52:44;101213.69;;;5.39;100.00
16194;BME280;8204;53.582;10.080;2023-01-29T01:55:16;101228.22;;;5.41;100.00
16194;BME280;8204;53.582;10.080;2023-01-29T01:57:53;101215.13;;;5.43;100.00
16194;BME280;8204;53.582;10.080;2023-01-29T02:00:25;101205.41;;;5.45;100.00
16194;BME280;8204;53.582;10.080;2023-01-29T02:02:54;101207.00;;;5.47;100.00
16194;BME280;8204;53.582;10.080;2023-01-29T02:05:36;101203.88;;;5.42;100.00
16194;BME280;8204;53.582;10.080;2023-01-29T02:08:25;101203.66;;;5.45;100.00
16194;BME280;8204;53.582;10.080;2023-01-29T02:11:10;101192.69;;;5.42;100.00
16194;BME280;8204;53.582;10.080;2023-01-29T02:13:42;101176.25;;;5.41;100.00
16194;BME280;8204;53.582;10.080;2023-01-29T02:16:12;101159.25;;;5.48;100.00
16194;BME280;8204;53.582;10.080;2023-01-29T02:18:41;101160.22;;;5.47;100.00
16194;BME280;8204;53.582;10.080;2023-01-29T02:21:19;101167.50;;;5.42;100.00
16194;BME280;8204;53.582;10.080;2023-01-29T02:24:16;101155.03;;;5.47;100.00
16194;BME280;8204;53.582;10.080;2023-01-29T02:27:06;101139.44;;;5.47;100.00
16194;BME280;8204;53.582;10.080;2023-01-29T02:29:51;101156.63;;;5.37;100.00
16194;BME280;8204;53.582;10.080;2023-01-29T02:32:27;101150.63;;;5.37;100.00
16194;BME280;8204;53.582;10.080;2023-01-29T02:35:07;101134.19;;;5.36;100.00
16194;BME280;8204;53.582;10.080;2023-01-29T02:37:54;101124.75;;;5.35;100.00
16194;BME280;8204;53.582;10.080;2023-01-29T02:40:29;101131.84;;;5.33;100.00
16194;BME280;8204;53.582;10.080;2023-01-29T02:43:07;101134.78;;;5.29;100.00
16194;BME280;8204;53.582;10.080;2023-01-29T02:45:45;101119.78;;;5.32;100.00
16194;BME280;8204;53.582;10.080;2023-01-29T02:48:18;101112.94;;;5.31;100.00
16194;BME280;8204;53.582;10.080;2023-01-29T02:50:53;101109.16;;;5.35;100.00
16194;BME280;8204;53.582;10.080;2023-01-29T02:53:26;101110.34;;;5.42;100.00
16194;BME280;8204;53.582;10.080;2023-01-29T02:55:59;101115.31;;;5.45;100.00
16194;BME280;8204;53.582;10.080;2023-01-29T02:58:34;101120.50;;;5.45;100.00
16194;BME280;8204;53.582;10.080;2023-01-29T03:01:09;101123.84;;;5.47;100.00
16194;BME280;8204;53.582;10.080;2023-01-29T03:03:40;101129.47;;;5.41;100.00
16194;BME280;8204;53.582;10.080;2023-01-29T03:06:14;101115.31;;;5.45;100.00
16194;BME280;8204;53.582;10.080;2023-01-29T03:08:51;101103.84;;;5.48;100.00
16194;BME280;8204;53.582;10.080;2023-01-29T03:11:21;101097.00;;;5.47;100.00
16194;BME280;8204;53.582;10.080;2023-01-29T03:13:54;101104.66;;;5.48;100.00
16194;BME280;8204;53.582;10.080;2023-01-29T03:16:32;101093.13;;;5.52;100.00
16194;BME280;8204;53.582;10.080;2023-01-29T03:19:05;101088.84;;;5.51;100.00
16194;BME280;8204;53.582;10.080;2023-01-29T03:21:39;101093.00;;;5.54;100.00
16194;BME280;8204;53.582;10.080;2023-01-29T03:24:29;101103.38;;;5.54;100.00
16194;BME280;8204;53.582;10.080;2023-01-29T03:27:14;101097.13;;;5.56;100.00
16194;BME280;8204;53.582;10.080;2023-01-29T03:29:57;101089.19;;;5.58;100.00
16194;BME280;8204;53.582;10.080;2023-01-29T03:32:43;101103.84;;;5.48;100.00
16194;BME280;8204;53.582;10.080;2023-01-29T03:35:16;101088.59;;;5.54;100.00
16194;BME280;8204;53.582;10.080;2023-01-29T03:37:58;101093.81;;;5.54;100.00
16194;BME280;8204;53.582;10.080;2023-01-29T03:40:35;101092.63;;;5.58;100.00
16194;BME280;8204;53.582;10.080;2023-01-29T03:43:10;101089.31;;;5.56;100.00
16194;BME280;8204;53.582;10.080;2023-01-29T03:45:48;101094.31;;;5.59;100.00
16194;BME280;8204;53.582;10.080;2023-01-29T03:48:29;101084.84;;;5.58;100.00
16194;BME280;8204;53.582;10.080;2023-01-29T03:51:10;101092.50;;;5.60;100.00
16194;BME280;8204;53.582;10.080;2023-01-29T03:53:48;101095.97;;;5.60;100.00
16194;BME280;8204;53.582;10.080;2023-01-29T03:56:26;101096.31;;;5.56;100.00
16194;BME280;8204;53.582;10.080;2023-01-29T03:59:03;101099.25;;;5.51;100.00
16194;BME280;8204;53.582;10.080;2023-01-29T04:01:40;101094.75;;;5.42;100.00
16194;BME280;8204;53.582;10.080;2023-01-29T04:04:18;101079.88;;;5.44;100.00
16194;BME280;8204;53.582;10.080;2023-01-29T04:06:51;101076.56;;;5.42;100.00
16194;BME280;8204;53.582;10.080;2023-01-29T04:09:27;101068.69;;;5.44;100.00
16194;BME280;8204;53.582;10.080;2023-01-29T04:12:02;101073.38;;;5.39;100.00
16194;BME280;8204;53.582;10.080;2023-01-29T04:14:34;101068.78;;;5.42;100.00
16194;BME280;8204;53.582;10.080;2023-01-29T04:17:07;101071.38;;;5.42;100.00
16194;BME280;8204;53.582;10.080;2023-01-29T04:19:39;101058.38;;;5.42;100.00
16194;BME280;8204;53.582;10.080;2023-01-29T04:22:11;101063.47;;;5.44;100.00
16194;BME280;8204;53.582;10.080;2023-01-29T04:24:44;101049.88;;;5.51;100.00
16194;BME280;8204;53.582;10.080;2023-01-29T04:27:22;101050.00;;;5.50;100.00
16194;BME280;8204;53.582;10.080;2023-01-29T04:30:04;101051.31;;;5.44;100.00
16194;BME280;8204;53.582;10.080;2023-01-29T04:32:46;101043.84;;;5.40;100.00
16194;BME280;8204;53.582;10.080;2023-01-29T04:35:26;101029.59;;;5.34;100.00
16194;BME280;8204;53.582;10.080;2023-01-29T04:38:06;101006.56;;;5.30;100.00
16194;BME280;8204;53.582;10.080;2023-01-29T04:40:47;101000.28;;;5.32;100.00
16194;BME280;8204;53.582;10.080;2023-01-29T04:43:26;101004.06;;;5.28;100.00
16194;BME280;8204;53.582;10.080;2023-01-29T04:46:07;101009.25;;;5.28;100.00
16194;BME280;8204;53.582;10.080;2023-01-29T04:48:47;101018.50;;;5.21;100.00
16194;BME280;8204;53.582;10.080;2023-01-29T04:51:24;101010.56;;;5.23;100.00
16194;BME280;8204;53.582;10.080;2023-01-29T04:53:58;101011.63;;;5.20;100.00
16194;BME280;8204;53.582;10.080;2023-01-29T04:56:34;101011.38;;;5.23;100.00
16194;BME280;8204;53.582;10.080;2023-01-29T04:59:08;101025.78;;;5.16;100.00
16194;BME280;8204;53.582;10.080;2023-01-29T05:01:40;101021.78;;;5.12;100.00
16194;BME280;8204;53.582;10.080;2023-01-29T05:04:13;101008.53;;;5.15;100.00
16194;BME280;8204;53.582;10.080;2023-01-29T05:06:47;101014.81;;;5.13;100.00
16194;BME280;8204;53.582;10.080;2023-01-29T05:09:17;101006.91;;;5.14;100.00
16194;BME280;8204;53.582;10.080;2023-01-29T05:11:48;100996.41;;;5.16;100.00
16194;BME280;8204;53.582;10.080;2023-01-29T05:14:18;100992.97;;;5.15;100.00
16194;BME280;8204;53.582;10.080;2023-01-29T05:16:50;100991.78;;;5.19;100.00
16194;BME280;8204;53.582;10.080;2023-01-29T05:19:21;100993.53;;;5.19;100.00
16194;BME280;8204;53.582;10.080;2023-01-29T05:21:53;101005.59;;;5.20;100.00
16194;BME280;8204;53.582;10.080;2023-01-29T05:24:24;100989.41;;;5.16;100.00
16194;BME280;8204;53.582;10.080;2023-01-29T05:26:53;100984.72;;;5.21;100.00
16194;BME280;8204;53.582;10.080;2023-01-29T05:29:35;100991.78;;;5.30;100.00
16194;BME280;8204;53.582;10.080;2023-01-29T05:32:04;101006.44;;;5.20;100.00
16194;BME280;8204;53.582;10.080;2023-01-29T05:34:33;101024.84;;;5.17;100.00
16194;BME280;8204;53.582;10.080;2023-01-29T05:37:04;101002.91;;;5.21;100.00
16194;BME280;8204;53.582;10.080;2023-01-29T05:39:34;101018.94;;;5.26;100.00
16194;BME280;8204;53.582;10.080;2023-01-29T05:42:03;101019.66;;;5.17;100.00
16194;BME280;8204;53.582;10.080;2023-01-29T05:44:33;101021.53;;;5.15;100.00
16194;BME280;8204;53.582;10.080;2023-01-29T05:47:02;101010.44;;;5.24;100.00
16194;BME280;8204;53.582;10.080;2023-01-29T05:49:31;101004.19;;;5.27;100.00
16194;BME280;8204;53.582;10.080;2023-01-29T05:52:00;101022.22;;;5.28;100.00
16194;BME280;8204;53.582;10.080;2023-01-29T05:54:31;101023.09;;;5.29;100.00
16194;BME280;8204;53.582;10.080;2023-01-29T05:57:00;101046.69;;;5.26;100.00
16194;BME280;8204;53.582;10.080;2023-01-29T05:59:29;101090.97;;;5.24;100.00
16194;BME280;8204;53.582;10.080;2023-01-29T06:01:58;101075.84;;;5.29;100.00
16194;BME280;8204;53.582;10.080;2023-01-29T06:04:27;101099.00;;;5.32;100.00
16194;BME280;8204;53.582;10.080;2023-01-29T06:06:55;101110.69;;;5.27;100.00
16194;BME280;8204;53.582;10.080;2023-01-29T06:09:24;101100.06;;;5.30;100.00
16194;BME280;8204;53.582;10.080;2023-01-29T06:11:56;101102.75;;;5.28;100.00
16194;BME280;8204;53.582;10.080;2023-01-29T06:14:25;101103.50;;;5.30;100.00
16194;BME280;8204;53.582;10.080;2023-01-29T06:16:53;101099.81;;;5.33;100.00
16194;BME280;8204;53.582;10.080;2023-01-29T06:19:22;101091.56;;;5.28;100.00
16194;BME280;8204;53.582;10.080;2023-01-29T06:21:51;101088.63;;;5.32;100.00
16194;BME280;8204;53.582;10.080;2023-01-29T06:24:20;101081.63;;;5.33;100.00
16194;BME280;8204;53.582;10.080;2023-01-29T06:26:49;101076.34;;;5.34;100.00
16194;BME280;8204;53.582;10.080;2023-01-29T06:29:21;101070.91;;;5.37;100.00
16194;BME280;8204;53.582;10.080;2023-01-29T06:31:50;101084.16;;;5.34;100.00
16194;BME280;8204;53.582;10.080;2023-01-29T06:34:19;101078.69;;;5.37;100.00
16194;BME280;8204;53.582;10.080;2023-01-29T06:36:47;101082.69;;;5.41;100.00
16194;BME280;8204;53.582;10.080;2023-01-29T06:39:16;101088.88;;;5.40;100.00
16194;BME280;8204;53.582;10.080;2023-01-29T06:41:45;101082.94;;;5.38;100.00
16194;BME280;8204;53.582;10.080;2023-01-29T06:44:14;101088.88;;;5.40;100.00
16194;BME280;8204;53.582;10.080;2023-01-29T06:46:45;101090.75;;;5.38;100.00
16194;BME280;8204;53.582;10.080;2023-01-29T06:49:14;101102.09;;;5.37;100.00
16194;BME280;8204;53.582;10.080;2023-01-29T06:51:42;101102.09;;;5.37;100.00
16194;BME280;8204;53.582;10.080;2023-01-29T06:54:11;101113.31;;;5.38;100.00
16194;BME280;8204;53.582;10.080;2023-01-29T06:56:40;101110.22;;;5.33;100.00
16194;BME280;8204;53.582;10.080;2023-01-29T06:59:10;101123.22;;;5.33;100.00
16194;BME280;8204;53.582;10.080;2023-01-29T07:01:40;101129.47;;;5.30;100.00
16194;BME280;8204;53.582;10.080;2023-01-29T07:04:12;101141.03;;;5.26;100.00
16194;BME280;8204;53.582;10.080;2023-01-29T07:06:41;101153.69;;;5.31;100.00
16194;BME280;8204;53.582;10.080;2023-01-29T07:09:11;101142.25;;;5.33;100.00
16194;BME280;8204;53.582;10.080;2023-01-29T07:11:40;101162.97;;;5.22;100.00
16194;BME280;8204;53.582;10.080;2023-01-29T07:14:10;101161.69;;;5.28;100.00
16194;BME280;8204;53.582;10.080;2023-01-29T07:16:39;101166.56;;;5.32;100.00
16194;BME280;8204;53.582;10.080;2023-01-29T07:19:08;101168.91;;;5.35;100.00
16194;BME280;8204;53.582;10.080;2023-01-29T07:21:39;101171.28;;;5.38;100.00
16194;BME280;8204;53.582;10.080;2023-01-29T07:24:08;101175.22;;;5.44;100.00
16194;BME280;8204;53.582;10.080;2023-01-29T07:26:37;101198.59;;;5.44;100.00
16194;BME280;8204;53.582;10.080;2023-01-29T07:29:06;101202.94;;;5.43;100.00
16194;BME280;8204;53.582;10.080;2023-01-29T07:31:35;101202.00;;;5.44;100.00
16194;BME280;8204;53.582;10.080;2023-01-29T07:34:03;101204.59;;;5.44;100.00
16194;BME280;8204;53.582;10.080;2023-01-29T07:36:32;101203.66;;;5.45;100.00
16194;BME280;8204;53.582;10.080;2023-01-29T07:39:05;101209.09;;;5.42;100.00
16194;BME280;8204;53.582;10.080;2023-01-29T07:41:34;101191.63;;;5.44;100.00
16194;BME280;8204;53.582;10.080;2023-01-29T07:44:03;101181.09;;;5.46;100.00
16194;BME280;8204;53.582;10.080;2023-01-29T07:46:32;101188.88;;;5.46;100.00
16194;BME280;8204;53.582;10.080;2023-01-29T07:49:01;101199.63;;;5.41;100.00
16194;BME280;8204;53.582;10.080;2023-01-29T07:51:30;101219.13;;;5.36;100.00
16194;BME280;8204;53.582;10.080;2023-01-29T07:53:59;101221.84;;;5.34;100.00
16194;BME280;8204;53.582;10.080;2023-01-29T07:56:31;101213.53;;;5.29;100.00
16194;BME280;8204;53.582;10.080;2023-01-29T07:59:00;101210.94;;;5.29;100.00
16194;BME280;8204;53.582;10.080;2023-01-29T08:01:29;101207.66;;;5.27;100.00
16194;BME280;8204;53.582;10.080;2023-01-29T08:03:58;101210.25;;;5.27;100.00
16194;BME280;8204;53.582;10.080;2023-01-29T08:06:27;101209.41;;;5.27;100.00
16194;BME280;8204;53.582;10.080;2023-01-29T08:08:56;101206.81;;;5.27;100.00
16194;BME280;8204;53.582;10.080;2023-01-29T08:11:24;101210.78;;;5.20;100.00
16194;BME280;8204;53.582;10.080;2023-01-29T08:13:56;101200.31;;;5.21;100.00
16194;BME280;8204;53.582;10.080;2023-01-29T08:16:25;101195.53;;;5.15;100.00
16194;BME280;8204;53.582;10.080;2023-01-29T08:18:53;101192.00;;;5.16;100.00
16194;BME280;8204;53.582;10.080;2023-01-29T08:21:22;101180.53;;;5.08;100.00
16194;BME280;8204;53.582;10.080;2023-01-29T08:23:52;101182.06;;;5.10;100.00
16194;BME280;8204;53.582;10.080;2023-01-29T08:26:20;101166.03;;;5.16;100.00
16194;BME280;8204;53.582;10.080;2023-01-29T08:28:51;101162.75;;;5.14;100.00
16194;BME280;8204;53.582;10.080;2023-01-29T08:31:22;101160.84;;;5.16;100.00
16194;BME280;8204;53.582;10.080;2023-01-29T08:33:52;101163.47;;;5.27;100.00
16194;BME280;8204;53.582;10.080;2023-01-29T08:36:21;101154.97;;;5.25;100.00
16194;BME280;8204;53.582;10.080;2023-01-29T08:38:50;101157.09;;;5.20;100.00
16194;BME280;8204;53.582;10.080;2023-01-29T08:41:19;101155.91;;;5.13;100.00
16194;BME280;8204;53.582;10.080;2023-01-29T08:43:48;101135.81;;;5.15;100.00
16194;BME280;8204;53.582;10.080;2023-01-29T08:46:16;101136.19;;;5.11;100.00
16194;BME280;8204;53.582;10.080;2023-01-29T08:48:48;101127.19;;;5.15;100.00
16194;BME280;8204;53.582;10.080;2023-01-29T08:51:17;101122.72;;;5.17;100.00
16194;BME280;8204;53.582;10.080;2023-01-29T08:53:46;101127.06;;;5.16;100.00
16194;BME280;8204;53.582;10.080;2023-01-29T08:56:15;101121.41;;;5.22;100.00
16194;BME280;8204;53.582;10.080;2023-01-29T08:58:44;101115.88;;;5.27;100.00
16194;BME280;8204;53.582;10.080;2023-01-29T09:01:13;101125.47;;;5.26;100.00
16194;BME280;8204;53.582;10.080;2023-01-29T09:03:42;101134.66;;;5.19;100.00
16194;BME280;8204;53.582;10.080;2023-01-29T09:06:14;101108.44;;;5.22;100.00
16194;BME280;8204;53.582;10.080;2023-01-29T09:08:43;101117.41;;;5.18;100.00
16194;BME280;8204;53.582;10.080;2023-01-29T09:11:12;101097.56;;;5.28;100.00
16194;BME280;8204;53.582;10.080;2023-01-29T09:13:41;101112.94;;;5.31;100.00
16194;BME280;8204;53.582;10.080;2023-01-29T09:16:10;101110.09;;;5.23;100.00
16194;BME280;8204;53.582;10.080;2023-01-29T09:18:39;101085.03;;;5.11;100.00
16194;BME280;8204;53.582;10.080;2023-01-29T09:21:08;101073.03;;;5.21;100.00
16194;BME280;8204;53.582;10.080;2023-01-29T09:23:39;101045.16;;;5.23;100.00
16194;BME280;8204;53.582;10.080;2023-01-29T09:26:08;101046.81;;;5.24;100.00
16194;BME280;8204;53.582;10.080;2023-01-29T09:28:36;101053.88;;;5.22;100.00
16194;BME280;8204;53.582;10.080;2023-01-29T09:31:05;101044.81;;;5.28;100.00
16194;BME280;8204;53.582;10.080;2023-01-29T09:33:34;101020.59;;;5.27;100.00
16194;BME280;8204;53.582;10.080;2023-01-29T09:36:03;101018.34;;;5.34;100.00
16194;BME280;8204;53.582;10.080;2023-01-29T09:38:32;101014.69;;;5.36;100.00
16194;BME280;8204;53.582;10.080;2023-01-29T09:41:11;101008.81;;;5.34;100.00
16194;BME280;8204;53.582;10.080;2023-01-29T09:43:44;100991.06;;;5.39;100.00
16194;BME280;8204;53.582;10.080;2023-01-29T09:46:20;100971.69;;;5.43;100.00
16194;BME280;8204;53.582;10.080;2023-01-29T09:48:56;100965.09;;;5.39;100.00
16194;BME280;8204;53.582;10.080;2023-01-29T09:51:31;100945.00;;;5.41;100.00
16194;BME280;8204;53.582;10.080;2023-01-29T09:54:11;100918.78;;;5.44;100.00
16194;BME280;8204;53.582;10.080;2023-01-29T09:56:45;100906.03;;;5.41;100.00
16194;BME280;8204;53.582;10.080;2023-01-29T09:59:16;100885.59;;;5.48;100.00
16194;BME280;8204;53.582;10.080;2023-01-29T10:01:52;100878.22;;;5.53;100.00
16194;BME280;8204;53.582;10.080;2023-01-29T10:04:48;100859.38;;;5.51;100.00
16194;BME280;8204;53.582;10.080;2023-01-29T10:07:29;100829.00;;;5.51;100.00
16194;BME280;8204;53.582;10.080;2023-01-29T10:10:21;100815.72;;;5.54;100.00
16194;BME280;8204;53.582;10.080;2023-01-29T10:13:04;100810.31;;;5.57;100.00
16194;BME280;8204;53.582;10.080;2023-01-29T10:15:44;100790.78;;;5.63;100.00
16194;BME280;8204;53.582;10.080;2023-01-29T10:18:37;100776.66;;;5.56;100.00
16194;BME280;8204;53.582;10.080;2023-01-29T10:21:23;100762.31;;;5.61;100.00
16194;BME280;8204;53.582;10.080;2023-01-29T10:24:01;100736.88;;;5.65;100.00
16194;BME280;8204;53.582;10.080;2023-01-29T10:26:33;100736.31;;;5.61;100.00
16194;BME280;8204;53.582;10.080;2023-01-29T10:29:06;100721.22;;;5.55;100.00
16194;BME280;8204;53.582;10.080;2023-01-29T10:31:37;100711.97;;;5.62;100.00
16194;BME280;8204;53.582;10.080;2023-01-29T10:34:12;100712.69;;;5.64;100.00
16194;BME280;8204;53.582;10.080;2023-01-29T10:36:44;100722.69;;;5.69;100.00
16194;BME280;8204;53.582;10.080;2023-01-29T10:39:15;100735.13;;;5.65;100.00
16194;BME280;8204;53.582;10.080;2023-01-29T10:41:59;100736.78;;;5.66;100.00
16194;BME280;8204;53.582;10.080;2023-01-29T10:44:43;100756.72;;;5.66;100.00
16194;BME280;8204;53.582;10.080;2023-01-29T10:47:25;100748.13;;;5.65;100.00
16194;BME280;8204;53.582;10.080;2023-01-29T10:50:11;100743.06;;;5.64;100.00
16194;BME280;8204;53.582;10.080;2023-01-29T10:53:00;100753.84;;;5.59;100.00
16194;BME280;8204;53.582;10.080;2023-01-29T10:55:40;100742.09;;;5.65;100.00
16194;BME280;8204;53.582;10.080;2023-01-29T10:58:19;100758.53;;;5.65;100.00
16194;BME280;8204;53.582;10.080;2023-01-29T11:00:53;100750.75;;;5.54;100.00
16194;BME280;8204;53.582;10.080;2023-01-29T11:03:23;100746.47;;;5.64;100.00
16194;BME280;8204;53.582;10.080;2023-01-29T11:05:57;100751.16;;;5.70;100.00
16194;BME280;8204;53.582;10.080;2023-01-29T11:08:33;100745.25;;;5.68;100.00
16194;BME280;8204;53.582;10.080;2023-01-29T11:11:07;100746.22;;;5.67;100.00
16194;BME280;8204;53.582;10.080;2023-01-29T11:13:40;100766.03;;;5.68;100.00
16194;BME280;8204;53.582;10.080;2023-01-29T11:16:12;100761.25;;;5.64;100.00
16194;BME280;8204;53.582;10.080;2023-01-29T11:18:50;100768.66;;;5.68;100.00
16194;BME280;8204;53.582;10.080;2023-01-29T11:21:20;100770.53;;;5.77;100.00
16194;BME280;8204;53.582;10.080;2023-01-29T11:23:49;100784.56;;;5.75;100.00
16194;BME280;8204;53.582;10.080;2023-01-29T11:26:19;100803.59;;;5.75;100.00
16194;BME280;8204;53.582;10.080;2023-01-29T11:28:50;100794.22;;;5.83;100.00
16194;BME280;8204;53.582;10.080;2023-01-29T11:31:25;100809.16;;;5.81;100.00
16194;BME280;8204;53.582;10.080;2023-01-29T11:34:02;100804.53;;;5.74;100.00
16194;BME280;8204;53.582;10.080;2023-01-29T11:36:35;100805.72;;;5.81;100.00
16194;BME280;8204;53.582;10.080;2023-01-29T11:39:19;100818.97;;;5.78;100.00
16194;BME280;8204;53.582;10.080;2023-01-29T11:41:53;100816.50;;;5.77;100.00
16194;BME280;8204;53.582;10.080;2023-01-29T11:44:31;100806.69;;;5.80;100.00
16194;BME280;8204;53.582;10.080;2023-01-29T11:47:18;100819.69;;;5.80;100.00
16194;BME280;8204;53.582;10.080;2023-01-29T11:49:49;100831.38;;;5.75;100.00
16194;BME280;8204;53.582;10.080;2023-01-29T11:52:21;100809.97;;;5.82;100.00
16194;BME280;8204;53.582;10.080;2023-01-29T11:54:54;100822.81;;;5.83;100.00
16194;BME280;8204;53.582;10.080;2023-01-29T11:57:27;100835.59;;;5.86;100.00
16194;BME280;8204;53.582;10.080;2023-01-29T11:59:59;100820.72;;;5.78;100.00
16194;BME280;8204;53.582;10.080;2023-01-29T12:02:35;100820.00;;;5.86;100.00
16194;BME280;8204;53.582;10.080;2023-01-29T12:05:13;100828.16;;;5.82;100.00
16194;BME280;8204;53.582;10.080;2023-01-29T12:07:44;100832.19;;;5.75;100.00
16194;BME280;8204;53.582;10.080;2023-01-29T12:10:30;100820.63;;;5.79;100.00
16194;BME280;8204;53.582;10.080;2023-01-29T12:13:04;100819.44;;;5.72;100.00
16194;BME280;8204;53.582;10.080;2023-01-29T12:15:34;100805.72;;;5.81;100.00
16194;BME280;8204;53.582;10.080;2023-01-29T12:18:11;100827.41;;;5.91;100.00
16194;BME280;8204;53.582;10.080;2023-01-29T12:20:49;100840.91;;;5.85;100.00
16194;BME280;8204;53.582;10.080;2023-01-29T12:23:24;100827.81;;;5.76;100.00
16194;BME280;8204;53.582;10.080;2023-01-29T12:25:59;100798.63;;;5.83;100.00
16194;BME280;8204;53.582;10.080;2023-01-29T12:28:43;100782.25;;;5.92;100.00
16194;BME280;8204;53.582;10.080;2023-01-29T12:31:26;100787.47;;;5.92;100.00
16194;BME280;8204;53.582;10.080;2023-01-29T12:34:03;100810.16;;;5.90;100.00
16194;BME280;8204;53.582;10.080;2023-01-29T12:36:39;100803.50;;;5.97;100.00
16194;BME280;8204;53.582;10.080;2023-01-29T12:39:15;100807.22;;;6.04;100.00
16194;BME280;8204;53.582;10.080;2023-01-29T12:41:48;100814.38;;;6.11;100.00
16194;BME280;8204;53.582;10.080;2023-01-29T12:44:24;100825.63;;;6.12;100.00
16194;BME280;8204;53.582;10.080;2023-01-29T12:46:55;100824.16;;;5.98;100.00
16194;BME280;8204;53.582;10.080;2023-01-29T12:49:31;100787.47;;;5.92;100.00
16194;BME280;8204;53.582;10.080;2023-01-29T12:52:06;100760.38;;;5.94;100.00
16194;BME280;8204;53.582;10.080;2023-01-29T12:54:41;100761.00;;;5.87;100.00
16194;BME280;8204;53.582;10.080;2023-01-29T12:57:19;100749.00;;;5.75;100.00
16194;BME280;8204;53.582;10.080;2023-01-29T12:59:53;100774.28;;;5.84;100.00
16194;BME280;8204;53.582;10.080;2023-01-29T13:02:31;100771.47;;;5.76;100.00
16194;BME280;8204;53.582;10.080;2023-01-29T13:05:17;100769.13;;;5.73;100.00
16194;BME280;8204;53.582;10.080;2023-01-29T13:07:52;100753.47;;;5.84;100.00
16194;BME280;8204;53.582;10.080;2023-01-29T13:10:24;100768.56;;;5.90;100.00
16194;BME280;8204;53.582;10.080;2023-01-29T13:13:00;100776.34;;;5.90;100.00
16194;BME280;8204;53.582;10.080;2023-01-29T13:15:34;100778.94;;;5.90;100.00
16194;BME280;8204;53.582;10.080;2023-01-29T13:18:32;100777.06;;;5.92;100.00
16194;BME280;8204;53.582;10.080;2023-01-29T13:21:12;100795.94;;;5.94;100.00
16194;BME280;8204;53.582;10.080;2023-01-29T13:23:44;100802.28;;;6.01;100.00